Cristopolis, Brazil
Current Conditions -  °F | °C
As of 5:00 PM on Friday 31 Oct 2014 (Local Time) from SBLP Reporting Station
Broken Clouds Broken Clouds  
Wind Chill: 88°   Ceiling: 10000
Heat Index: 89°   Visibility: 6mi
Dew Point: 64°   Wind: 7mph
Humidity: 46%   Direction: 220°SW
Pressure: 29.85"   Gusts: NA
Location:  12.23°S, 44.42°W
Report Text: SBLP 312000Z 22006KT 9999 FEW030 BKN100 31/18 Q1011
Loading
Personal Weather Stations






























Interactive Weather Map
Tropical Storm Tracking
New forecast layout! Learn more

10-Day Weather Forecast

Advertisements
Track Severe Weather on mobile